createdAt,value
2017-05-17T00:01:12.494Z,8.34
2017-05-17T00:03:40.931Z,6.24
2017-05-17T00:06:09.831Z,6.24
2017-05-17T00:08:38.710Z,5.72
2017-05-17T00:11:07.006Z,4.64
2017-05-17T00:13:34.978Z,4.74
2017-05-17T00:16:03.267Z,4.56
2017-05-17T00:18:31.946Z,5.82
2017-05-17T00:21:00.312Z,5.60
2017-05-17T00:23:29.426Z,5.92
2017-05-17T00:25:58.120Z,6.66
2017-05-17T00:28:26.491Z,4.34
2017-05-17T00:30:55.183Z,6.38
2017-05-17T00:33:23.863Z,6.60
2017-05-17T00:36:04.223Z,7.60
2017-05-17T00:38:44.010Z,9.02
2017-05-17T00:41:24.279Z,10.28
2017-05-17T00:44:04.420Z,13.06
2017-05-17T00:46:44.500Z,7.44
2017-05-17T00:49:24.950Z,7.28
2017-05-17T00:52:04.738Z,7.44
2017-05-17T00:54:33.043Z,10.56
2017-05-17T00:57:00.984Z,7.88
2017-05-17T00:59:29.378Z,5.98
2017-05-17T01:01:57.323Z,4.48
2017-05-17T01:04:25.644Z,4.98
2017-05-17T01:06:54.771Z,5.74
2017-05-17T01:09:23.658Z,5.32
2017-05-17T01:11:52.537Z,6.12
2017-05-17T01:14:21.482Z,6.50
2017-05-17T01:16:50.145Z,5.76
2017-05-17T01:19:18.072Z,4.30
2017-05-17T01:21:48.612Z,7.52
2017-05-17T01:24:16.161Z,9.58
2017-05-17T01:26:44.470Z,14.70
2017-05-17T01:29:13.191Z,12.28
2017-05-17T01:31:41.487Z,13.04
2017-05-17T01:34:09.811Z,13.50
2017-05-17T01:36:38.923Z,15.32
2017-05-17T01:39:06.859Z,15.84
2017-05-17T01:41:35.158Z,9.46
2017-05-17T01:44:03.531Z,7.58
2017-05-17T01:46:31.835Z,4.82
2017-05-17T01:48:59.771Z,5.32
2017-05-17T01:51:29.765Z,4.18
2017-05-17T01:53:58.459Z,4.78
2017-05-17T01:56:26.421Z,4.32
2017-05-17T01:58:54.999Z,5.32
2017-05-17T02:01:23.907Z,4.80
2017-05-17T02:03:52.782Z,5.50
2017-05-17T02:06:21.706Z,4.20
2017-05-17T02:08:50.384Z,5.70
2017-05-17T02:11:18.315Z,4.22
2017-05-17T02:13:47.431Z,4.16
2017-05-17T02:16:16.487Z,3.10
2017-05-17T02:18:44.815Z,3.42
2017-05-17T02:21:12.840Z,3.06
2017-05-17T02:23:41.134Z,4.50
2017-05-17T02:26:09.430Z,3.26
2017-05-17T02:28:37.406Z,4.68
2017-05-17T02:31:06.294Z,4.52
2017-05-17T02:33:34.590Z,4.06
2017-05-17T02:36:02.939Z,3.82
2017-05-17T02:38:31.619Z,4.26
2017-05-17T02:40:59.931Z,4.00
2017-05-17T02:43:27.929Z,4.30
2017-05-17T02:45:56.825Z,4.58
2017-05-17T02:48:25.991Z,6.20
2017-05-17T02:50:54.365Z,4.98
2017-05-17T02:53:22.293Z,5.22
2017-05-17T02:55:50.967Z,4.28
2017-05-17T02:58:19.891Z,3.80
2017-05-17T03:00:48.558Z,4.28
2017-05-17T03:03:17.598Z,4.98
2017-05-17T03:05:46.000Z,4.40
2017-05-17T03:08:14.897Z,4.70
2017-05-17T03:10:43.563Z,4.18
2017-05-17T03:13:11.543Z,4.46
2017-05-17T03:15:39.839Z,4.12
2017-05-17T03:18:08.504Z,4.42
2017-05-17T03:20:36.507Z,5.38
2017-05-17T03:23:04.435Z,5.58
2017-05-17T03:25:33.313Z,5.88
2017-05-17T03:28:02.055Z,5.08
2017-05-17T03:30:30.943Z,5.98
2017-05-17T03:33:00.002Z,5.80
2017-05-17T03:35:28.370Z,6.96
2017-05-17T03:37:57.058Z,6.46
2017-05-17T03:40:25.367Z,7.52
2017-05-17T03:42:53.719Z,10.52
2017-05-17T03:45:22.757Z,10.04
2017-05-17T03:47:51.050Z,8.08
2017-05-17T03:50:19.774Z,8.96
2017-05-17T03:52:48.075Z,7.02
2017-05-17T03:55:16.971Z,8.58
2017-05-17T03:57:45.704Z,9.64
2017-05-17T04:00:14.029Z,9.14
2017-05-17T04:02:42.328Z,9.40
2017-05-17T04:05:10.686Z,9.20
2017-05-17T04:07:38.978Z,7.36
2017-05-17T04:10:07.638Z,8.46
2017-05-17T04:12:36.567Z,7.98
2017-05-17T04:15:05.450Z,9.74
2017-05-17T04:17:34.119Z,9.38
2017-05-17T04:20:02.813Z,9.56
2017-05-17T04:22:31.110Z,9.44
2017-05-17T04:24:59.412Z,10.78
2017-05-17T04:27:27.799Z,11.94
2017-05-17T04:29:56.843Z,9.94
2017-05-17T04:32:25.149Z,9.90
2017-05-17T04:34:53.499Z,11.76
2017-05-17T04:37:22.158Z,8.84
2017-05-17T04:39:51.034Z,11.18
2017-05-17T04:42:19.562Z,11.12
2017-05-17T04:44:48.226Z,9.80
2017-05-17T04:47:16.533Z,12.06
2017-05-17T04:49:44.911Z,11.56
2017-05-17T04:52:13.574Z,9.82
2017-05-17T04:54:41.874Z,10.32
2017-05-17T04:57:11.034Z,11.82
2017-05-17T04:59:39.910Z,11.80
2017-05-17T05:02:08.197Z,12.42
2017-05-17T05:04:36.215Z,12.34
2017-05-17T05:07:04.889Z,10.02
2017-05-17T05:09:33.190Z,9.76
2017-05-17T05:12:01.635Z,11.56
2017-05-17T05:14:30.517Z,11.98
2017-05-17T05:16:59.186Z,7.94
2017-05-17T05:19:28.155Z,8.96
2017-05-17T05:21:57.042Z,10.88
2017-05-17T05:24:24.966Z,9.92
2017-05-17T05:26:53.314Z,9.44
2017-05-17T05:29:22.356Z,10.68
2017-05-17T05:31:51.411Z,12.12
2017-05-17T05:34:20.349Z,12.16
2017-05-17T05:36:49.235Z,10.20
2017-05-17T05:39:17.527Z,10.26
2017-05-17T05:41:46.646Z,12.90
2017-05-17T05:44:15.892Z,11.88
2017-05-17T05:46:44.939Z,11.50
2017-05-17T05:49:13.882Z,19.04
2017-05-17T05:51:42.766Z,15.70
2017-05-17T05:54:10.695Z,10.30
2017-05-17T05:56:39.039Z,6.48
2017-05-17T05:59:07.917Z,5.60
2017-05-17T06:01:35.843Z,6.64
2017-05-17T06:04:04.944Z,5.34
2017-05-17T06:06:33.991Z,6.84
2017-05-17T06:09:02.890Z,8.28
2017-05-17T06:11:31.270Z,10.10
2017-05-17T06:13:59.212Z,7.98
2017-05-17T06:16:28.120Z,8.26
2017-05-17T06:18:57.097Z,8.82
2017-05-17T06:21:25.779Z,8.80
2017-05-17T06:23:53.709Z,11.20
2017-05-17T06:26:21.708Z,13.12
2017-05-17T06:28:50.007Z,13.94
2017-05-17T06:31:17.945Z,13.20
2017-05-17T06:33:46.299Z,8.30
2017-05-17T06:36:14.975Z,9.48
2017-05-17T06:38:42.910Z,10.12
2017-05-17T06:41:11.267Z,10.62
2017-05-17T06:43:39.195Z,7.18
2017-05-17T06:46:07.486Z,4.46
2017-05-17T06:48:36.075Z,9.04
2017-05-17T06:51:04.017Z,3.44
2017-05-17T06:53:32.328Z,5.78
2017-05-17T06:56:00.842Z,4.14
2017-05-17T06:58:29.200Z,5.54
2017-05-17T07:00:57.560Z,4.92
2017-05-17T07:03:25.953Z,8.76
2017-05-17T07:05:54.257Z,7.66
2017-05-17T07:08:22.563Z,6.22
2017-05-17T07:10:50.903Z,5.22
2017-05-17T07:13:18.831Z,7.52
2017-05-17T07:15:47.126Z,6.80
2017-05-17T07:18:15.479Z,7.50
2017-05-17T07:20:44.363Z,6.22
2017-05-17T07:23:13.035Z,5.24
2017-05-17T07:25:41.383Z,2.94
2017-05-17T07:28:09.303Z,4.56
2017-05-17T07:30:37.602Z,3.10
2017-05-17T07:33:05.974Z,3.48
2017-05-17T07:35:34.275Z,3.42
2017-05-17T07:38:02.938Z,2.78
2017-05-17T07:40:31.311Z,2.86
2017-05-17T07:42:59.267Z,5.60
2017-05-17T07:45:28.340Z,12.66
2017-05-17T07:47:57.856Z,3.90
2017-05-17T07:50:26.176Z,2.56
2017-05-17T07:52:54.491Z,3.08
2017-05-17T07:55:22.840Z,2.70
2017-05-17T07:57:51.138Z,2.88
2017-05-17T08:00:20.018Z,3.52
2017-05-17T08:02:49.094Z,3.82
2017-05-17T08:05:17.018Z,2.90
2017-05-17T08:07:45.054Z,6.54
2017-05-17T08:10:13.999Z,6.10
2017-05-17T08:12:42.671Z,8.70
2017-05-17T08:15:10.606Z,10.02
2017-05-17T08:17:38.983Z,10.50
2017-05-17T08:20:07.290Z,11.38
2017-05-17T08:22:35.219Z,6.20
2017-05-17T08:25:03.191Z,7.52
2017-05-17T08:27:31.130Z,4.92
2017-05-17T08:30:00.183Z,5.80
2017-05-17T08:32:28.563Z,7.22
2017-05-17T08:34:56.916Z,5.68
2017-05-17T08:37:25.815Z,6.80
2017-05-17T08:39:54.164Z,5.70
2017-05-17T08:42:22.827Z,5.18
2017-05-17T08:44:51.123Z,5.00
2017-05-17T08:47:20.208Z,4.10
2017-05-17T08:49:48.875Z,3.14
2017-05-17T08:52:17.754Z,5.64
2017-05-17T08:54:45.736Z,2.64
2017-05-17T08:57:13.666Z,2.10
2017-05-17T08:59:41.960Z,3.90
2017-05-17T09:02:11.054Z,2.64
2017-05-17T09:04:39.715Z,2.60
2017-05-17T09:07:08.010Z,3.14
2017-05-17T09:09:36.938Z,3.06
2017-05-17T09:12:05.231Z,2.64
2017-05-17T09:14:33.526Z,6.44
2017-05-17T09:17:01.506Z,3.26
2017-05-17T09:19:29.824Z,2.70
2017-05-17T09:21:58.147Z,9.48
2017-05-17T09:24:26.506Z,3.28
2017-05-17T09:26:54.444Z,2.40
2017-05-17T09:29:22.740Z,2.32
2017-05-17T09:31:51.348Z,2.54
2017-05-17T09:34:21.147Z,3.32
2017-05-17T09:36:49.443Z,1.96
2017-05-17T09:39:18.367Z,2.22
2017-05-17T09:41:46.671Z,4.12
2017-05-17T09:44:14.604Z,4.92
2017-05-17T09:46:43.555Z,3.60
2017-05-17T09:49:12.434Z,4.34
2017-05-17T09:51:41.099Z,6.56
2017-05-17T09:54:09.080Z,23.20
2017-05-17T09:56:38.118Z,23.26
2017-05-17T09:59:07.008Z,20.52
2017-05-17T10:01:35.798Z,9.06
2017-05-17T10:04:04.094Z,4.28
2017-05-17T10:06:32.027Z,4.00
2017-05-17T10:09:00.987Z,3.98
2017-05-17T10:11:29.886Z,3.98
2017-05-17T10:13:58.951Z,4.30
2017-05-17T10:16:28.046Z,2.76
2017-05-17T10:18:56.362Z,6.10
2017-05-17T10:21:25.252Z,6.52
2017-05-17T10:23:54.190Z,6.70
2017-05-17T10:26:23.062Z,3.98
2017-05-17T10:28:51.934Z,5.38
2017-05-17T10:31:21.023Z,5.12
2017-05-17T10:33:48.946Z,5.86
2017-05-17T10:36:16.890Z,9.26
2017-05-17T10:38:45.988Z,4.96
2017-05-17T10:41:14.897Z,3.20
2017-05-17T10:43:43.575Z,4.26
2017-05-17T10:46:12.275Z,6.64
2017-05-17T10:48:40.203Z,6.66
2017-05-17T10:51:08.502Z,10.58
2017-05-17T10:53:37.886Z,6.84
2017-05-17T10:56:06.927Z,7.10
2017-05-17T10:58:35.968Z,7.56
2017-05-17T11:01:04.315Z,3.54
2017-05-17T11:03:32.251Z,5.96
2017-05-17T11:06:01.150Z,5.34
2017-05-17T11:08:30.214Z,6.56
2017-05-17T11:10:59.093Z,2.28
2017-05-17T11:13:27.402Z,3.82
2017-05-17T11:15:56.375Z,4.30
2017-05-17T11:18:25.263Z,8.74
2017-05-17T11:20:53.943Z,4.50
2017-05-17T11:23:22.878Z,2.08
2017-05-17T11:25:51.534Z,3.44
2017-05-17T11:28:20.411Z,2.64
2017-05-17T11:30:49.346Z,2.12
2017-05-17T11:33:18.388Z,3.30
2017-05-17T11:35:46.318Z,2.92
2017-05-17T11:38:14.693Z,4.46
2017-05-17T11:40:43.727Z,6.38
2017-05-17T11:43:12.022Z,5.06
2017-05-17T11:45:40.950Z,4.40
2017-05-17T11:48:09.831Z,3.16
2017-05-17T11:50:38.495Z,2.10
2017-05-17T11:53:07.454Z,2.32
2017-05-17T11:55:36.489Z,2.68
2017-05-17T11:58:05.523Z,3.90
2017-05-17T12:00:34.750Z,6.16
2017-05-17T12:03:03.791Z,5.18
2017-05-17T12:05:32.098Z,4.64
2017-05-17T12:08:01.033Z,3.88
2017-05-17T12:10:29.713Z,2.88
2017-05-17T12:12:58.026Z,4.54
2017-05-17T12:15:26.670Z,3.44
2017-05-17T12:17:54.606Z,8.88
2017-05-17T12:20:22.528Z,6.48
2017-05-17T12:22:51.238Z,2.52
2017-05-17T12:25:19.906Z,13.18
2017-05-17T12:27:48.203Z,2.56
2017-05-17T12:30:16.379Z,2.06
2017-05-17T12:32:44.303Z,2.72
2017-05-17T12:35:12.228Z,1.62
2017-05-17T12:37:40.591Z,2.70
2017-05-17T12:40:08.509Z,2.90
2017-05-17T12:42:36.812Z,3.48
2017-05-17T12:45:04.791Z,7.40
2017-05-17T12:47:33.826Z,9.00
2017-05-17T12:50:02.703Z,8.58
2017-05-17T12:52:31.804Z,8.38
2017-05-17T12:55:00.696Z,5.32
2017-05-17T12:57:29.601Z,2.46
2017-05-17T12:59:58.341Z,2.60
2017-05-17T13:02:26.669Z,3.68
2017-05-17T13:04:54.597Z,2.60
2017-05-17T13:07:22.961Z,4.72
2017-05-17T13:09:51.994Z,2.74
2017-05-17T13:12:20.870Z,3.74
2017-05-17T13:14:49.827Z,2.80
2017-05-17T13:17:18.123Z,3.56
2017-05-17T13:19:46.423Z,3.70
2017-05-17T13:22:15.154Z,3.00
2017-05-17T13:24:43.080Z,4.22
2017-05-17T13:27:11.011Z,8.42
2017-05-17T13:29:39.723Z,8.94
2017-05-17T13:32:08.599Z,4.14
2017-05-17T13:34:37.626Z,2.88
2017-05-17T13:37:05.962Z,4.72
2017-05-17T13:39:33.891Z,3.06
2017-05-17T13:42:03.179Z,3.18
2017-05-17T13:44:32.660Z,3.04
2017-05-17T13:47:01.711Z,9.82
2017-05-17T13:49:30.612Z,8.60
2017-05-17T13:51:59.574Z,4.64
2017-05-17T13:54:27.887Z,2.88
2017-05-17T13:56:56.196Z,5.00
2017-05-17T13:59:24.287Z,4.12
2017-05-17T14:01:52.209Z,3.32
2017-05-17T14:04:20.502Z,2.30
2017-05-17T14:06:48.470Z,2.48
2017-05-17T14:09:16.775Z,3.62
2017-05-17T14:11:45.080Z,4.28
2017-05-17T14:14:13.530Z,4.44
2017-05-17T14:16:42.406Z,7.72
2017-05-17T14:19:11.288Z,5.58
2017-05-17T14:21:39.260Z,3.12
2017-05-17T14:24:08.151Z,3.36
2017-05-17T14:26:37.035Z,3.96
2017-05-17T14:29:05.384Z,5.14
2017-05-17T14:31:33.683Z,5.42
2017-05-17T14:34:01.611Z,7.00
2017-05-17T14:36:29.958Z,5.44
2017-05-17T14:38:58.854Z,4.40
2017-05-17T14:41:27.950Z,4.78
2017-05-17T14:43:57.051Z,4.36
2017-05-17T14:46:25.348Z,3.66
2017-05-17T14:48:53.651Z,5.26
2017-05-17T14:51:22.746Z,11.60
2017-05-17T14:53:51.782Z,3.88
2017-05-17T14:56:20.075Z,4.38
2017-05-17T14:58:49.016Z,3.10
2017-05-17T15:01:17.684Z,2.74
2017-05-17T15:03:45.975Z,2.68
2017-05-17T15:06:15.306Z,2.90
2017-05-17T15:08:44.347Z,2.88
2017-05-17T15:11:13.395Z,3.00
2017-05-17T15:13:41.884Z,4.06
2017-05-17T15:16:11.215Z,2.88
2017-05-17T15:18:40.124Z,2.76
2017-05-17T15:21:09.677Z,3.50
2017-05-17T15:23:39.136Z,3.82
2017-05-17T15:26:08.192Z,2.80
2017-05-17T15:28:36.180Z,3.16
2017-05-17T15:31:05.213Z,10.66
2017-05-17T15:33:34.091Z,3.10
2017-05-17T15:36:02.798Z,3.88
2017-05-17T15:38:31.827Z,3.24
2017-05-17T15:41:00.705Z,3.78
2017-05-17T15:43:29.807Z,5.22
2017-05-17T15:45:58.691Z,5.18
2017-05-17T15:48:27.605Z,7.80
2017-05-17T15:50:56.319Z,4.42
2017-05-17T15:53:25.218Z,3.92
2017-05-17T15:55:54.103Z,5.08
2017-05-17T15:58:23.418Z,3.90
2017-05-17T16:00:51.719Z,4.90
2017-05-17T16:03:20.386Z,3.50
2017-05-17T16:05:49.314Z,4.90
2017-05-17T16:08:17.978Z,5.02
2017-05-17T16:10:45.907Z,11.40
2017-05-17T16:13:14.273Z,4.62
2017-05-17T16:15:43.324Z,3.00
2017-05-17T16:18:12.225Z,2.88
2017-05-17T16:20:40.991Z,6.36
2017-05-17T16:23:09.311Z,4.46
2017-05-17T16:25:37.627Z,4.42
2017-05-17T16:28:07.420Z,4.30
2017-05-17T16:30:36.297Z,4.58
2017-05-17T16:33:04.951Z,4.04
2017-05-17T16:35:33.294Z,6.40
2017-05-17T16:38:01.211Z,4.20
2017-05-17T16:40:29.511Z,5.10
2017-05-17T16:42:58.460Z,5.14
2017-05-17T16:45:27.520Z,10.46
2017-05-17T16:47:56.562Z,6.78
2017-05-17T16:50:25.521Z,10.34
2017-05-17T16:52:53.807Z,3.64
2017-05-17T16:55:22.673Z,4.14
2017-05-17T16:57:51.640Z,4.92
2017-05-17T17:00:20.684Z,4.22
2017-05-17T17:02:48.618Z,4.02
2017-05-17T17:05:17.418Z,5.06
2017-05-17T17:07:46.460Z,5.90
2017-05-17T17:10:14.770Z,6.02
2017-05-17T17:12:42.864Z,4.48
2017-05-17T17:15:10.810Z,3.80
2017-05-17T17:17:39.114Z,3.70
2017-05-17T17:20:07.118Z,3.62
2017-05-17T17:22:35.989Z,3.70
2017-05-17T17:25:04.862Z,3.68
2017-05-17T17:27:33.578Z,4.60
2017-05-17T17:30:02.454Z,4.00
2017-05-17T17:32:31.321Z,4.36
2017-05-17T17:35:00.191Z,3.32
2017-05-17T17:37:28.111Z,2.90
2017-05-17T17:39:56.404Z,3.42
2017-05-17T17:42:25.179Z,6.80
2017-05-17T17:44:54.049Z,4.32
2017-05-17T17:47:22.925Z,7.64
2017-05-17T17:49:51.702Z,8.14
2017-05-17T17:52:19.702Z,6.30
2017-05-17T17:54:48.588Z,5.66
2017-05-17T17:57:16.967Z,4.74
2017-05-17T17:59:45.844Z,7.96
2017-05-17T18:02:14.738Z,7.52
2017-05-17T18:04:43.950Z,7.76
2017-05-17T18:07:12.831Z,5.52
2017-05-17T18:09:41.510Z,5.82
2017-05-17T18:12:10.568Z,3.82
2017-05-17T18:14:39.606Z,4.84
2017-05-17T18:17:08.187Z,11.50
2017-05-17T18:19:37.011Z,14.46
2017-05-17T18:22:04.943Z,13.64
2017-05-17T18:24:33.822Z,14.28
2017-05-17T18:27:02.934Z,9.40
2017-05-17T18:29:30.878Z,11.60
2017-05-17T18:31:59.175Z,8.28
2017-05-17T18:34:27.543Z,11.20
2017-05-17T18:36:56.423Z,8.16
2017-05-17T18:39:24.724Z,6.92
2017-05-17T18:41:54.624Z,9.10
2017-05-17T18:44:23.503Z,8.30
2017-05-17T18:46:52.382Z,9.40
2017-05-17T18:49:21.101Z,7.78
2017-05-17T18:51:50.150Z,7.42
2017-05-17T18:54:18.452Z,7.02
2017-05-17T18:56:47.472Z,18.08
2017-05-17T18:59:16.380Z,22.42
2017-05-17T19:01:45.295Z,16.12
2017-05-17T19:04:14.258Z,24.30
2017-05-17T19:06:42.575Z,12.12
2017-05-17T19:09:10.896Z,6.04
2017-05-17T19:11:41.872Z,5.12
2017-05-17T19:14:10.806Z,5.36
2017-05-17T19:16:40.208Z,6.36
2017-05-17T19:19:08.601Z,4.16
2017-05-17T19:21:36.538Z,4.36
2017-05-17T19:24:04.839Z,3.20
2017-05-17T19:26:33.185Z,4.32
2017-05-17T19:29:01.110Z,3.06
2017-05-17T19:31:29.047Z,8.68
2017-05-17T19:33:57.035Z,88.44
2017-05-17T19:36:25.348Z,60.52
2017-05-17T19:38:53.652Z,33.92
2017-05-17T19:41:22.004Z,18.32
2017-05-17T19:43:49.934Z,16.94
2017-05-17T19:46:18.230Z,9.08
2017-05-17T19:48:46.611Z,7.90
2017-05-17T19:51:14.556Z,6.80
2017-05-17T19:53:42.886Z,5.16
2017-05-17T19:56:12.541Z,4.08
2017-05-17T19:58:41.222Z,3.98
2017-05-17T20:01:09.585Z,4.04
2017-05-17T20:03:39.529Z,3.98
2017-05-17T20:06:08.592Z,4.88
2017-05-17T20:08:37.461Z,5.12
2017-05-17T20:11:06.415Z,4.88
2017-05-17T20:13:35.092Z,4.46
2017-05-17T20:16:03.027Z,6.00
2017-05-17T20:18:31.383Z,5.52
2017-05-17T20:21:00.262Z,6.78
2017-05-17T20:23:29.150Z,6.20
2017-05-17T20:25:57.881Z,6.12
2017-05-17T20:28:25.808Z,5.32
2017-05-17T20:30:54.691Z,5.88
2017-05-17T20:33:22.667Z,7.06
2017-05-17T20:35:50.960Z,5.80
2017-05-17T20:38:19.999Z,6.10
2017-05-17T20:40:48.363Z,5.32
2017-05-17T20:43:16.374Z,4.96
2017-05-17T20:45:44.667Z,4.80
2017-05-17T20:48:12.676Z,4.98
2017-05-17T20:50:41.574Z,8.20
2017-05-17T20:53:10.463Z,6.90
2017-05-17T20:55:39.557Z,8.24
2017-05-17T20:58:08.458Z,9.10
2017-05-17T21:00:37.391Z,7.72
2017-05-17T21:03:05.755Z,6.16
2017-05-17T21:05:33.689Z,7.48
2017-05-17T21:08:01.991Z,7.82
2017-05-17T21:10:29.993Z,13.62
2017-05-17T21:12:58.355Z,8.44
2017-05-17T21:15:27.257Z,6.04
2017-05-17T21:17:56.372Z,7.86
2017-05-17T21:20:25.039Z,6.22
2017-05-17T21:22:54.079Z,5.50
2017-05-17T21:25:22.762Z,6.90
2017-05-17T21:27:51.673Z,10.10
2017-05-17T21:30:20.342Z,8.18
2017-05-17T21:32:48.682Z,8.08
2017-05-17T21:35:16.614Z,8.96
2017-05-17T21:37:44.555Z,9.56
2017-05-17T21:40:12.929Z,6.60
2017-05-17T21:42:40.911Z,7.30
2017-05-17T21:45:09.982Z,9.98
2017-05-17T21:47:38.992Z,13.62
2017-05-17T21:50:07.918Z,7.68
2017-05-17T21:52:35.849Z,8.88
2017-05-17T21:55:04.250Z,8.26
2017-05-17T21:57:33.134Z,7.26
2017-05-17T22:00:02.019Z,7.20
2017-05-17T22:02:30.030Z,6.42
2017-05-17T22:04:58.934Z,6.66
2017-05-17T22:07:27.996Z,4.74
2017-05-17T22:09:56.364Z,5.54
2017-05-17T22:12:24.678Z,9.54
2017-05-17T22:14:52.607Z,7.38
2017-05-17T22:17:20.594Z,13.84
2017-05-17T22:19:48.522Z,12.60
2017-05-17T22:22:17.402Z,12.52
2017-05-17T22:24:45.762Z,11.80
2017-05-17T22:27:14.075Z,10.14
2017-05-17T22:29:42.392Z,14.88
2017-05-17T22:32:11.426Z,12.26
2017-05-17T22:34:40.126Z,13.08
2017-05-17T22:37:08.106Z,25.56
2017-05-17T22:39:36.487Z,11.26
2017-05-17T22:42:04.794Z,14.52
2017-05-17T22:44:33.826Z,10.72
2017-05-17T22:47:01.891Z,10.14
2017-05-17T22:49:30.783Z,11.88
2017-05-17T22:51:59.679Z,9.04
2017-05-17T22:54:28.421Z,10.58
2017-05-17T22:56:57.108Z,12.68
2017-05-17T22:59:25.415Z,12.44
2017-05-17T23:01:53.763Z,9.98
2017-05-17T23:04:22.810Z,7.78
2017-05-17T23:06:50.743Z,14.42
2017-05-17T23:09:19.448Z,15.12
2017-05-17T23:11:47.379Z,11.72
2017-05-17T23:14:15.678Z,9.80
2017-05-17T23:16:44.915Z,8.94
2017-05-17T23:19:13.232Z,9.84
2017-05-17T23:21:41.540Z,8.14
2017-05-17T23:24:10.494Z,8.32
2017-05-17T23:26:38.822Z,8.00
2017-05-17T23:29:07.867Z,9.38
2017-05-17T23:31:35.991Z,9.28
2017-05-17T23:34:03.924Z,15.36
2017-05-17T23:36:32.227Z,15.22
2017-05-17T23:39:00.977Z,14.24
2017-05-17T23:41:29.283Z,11.62
2017-05-17T23:43:57.599Z,10.64
2017-05-17T23:46:26.708Z,9.48
2017-05-17T23:48:55.375Z,9.48
2017-05-17T23:51:23.677Z,11.50
2017-05-17T23:53:52.613Z,14.64
2017-05-17T23:56:21.653Z,12.10
2017-05-17T23:58:49.580Z,13.16
